sensor_id;sensor_type;location;lat;lon;timestamp;P1;durP1;ratioP1;P2;durP2;ratioP2
55784;SDS011;41709;52.536;5.688;2023-09-12T00:00:55;33.50;;;24.73;;
55784;SDS011;41709;52.536;5.688;2023-09-12T00:03:22;36.03;;;25.65;;
55784;SDS011;41709;52.536;5.688;2023-09-12T00:05:54;36.60;;;25.88;;
55784;SDS011;41709;52.536;5.688;2023-09-12T00:08:21;36.17;;;25.30;;
55784;SDS011;41709;52.536;5.688;2023-09-12T00:10:57;34.17;;;25.75;;
55784;SDS011;41709;52.536;5.688;2023-09-12T00:13:26;30.58;;;24.25;;
55784;SDS011;41709;52.536;5.688;2023-09-12T00:15:51;33.20;;;24.38;;
55784;SDS011;41709;52.536;5.688;2023-09-12T00:18:17;31.27;;;22.60;;
55784;SDS011;41709;52.536;5.688;2023-09-12T00:20:42;30.27;;;23.08;;
55784;SDS011;41709;52.536;5.688;2023-09-12T00:23:08;32.72;;;24.20;;
55784;SDS011;41709;52.536;5.688;2023-09-12T00:25:34;32.60;;;24.17;;
55784;SDS011;41709;52.536;5.688;2023-09-12T00:27:59;34.33;;;25.75;;
55784;SDS011;41709;52.536;5.688;2023-09-12T00:30:25;35.72;;;24.77;;
55784;SDS011;41709;52.536;5.688;2023-09-12T00:32:50;36.42;;;25.17;;
55784;SDS011;41709;52.536;5.688;2023-09-12T00:35:16;31.90;;;23.85;;
55784;SDS011;41709;52.536;5.688;2023-09-12T00:37:42;34.33;;;25.02;;
55784;SDS011;41709;52.536;5.688;2023-09-12T00:40:07;34.20;;;25.60;;
55784;SDS011;41709;52.536;5.688;2023-09-12T00:42:33;31.13;;;23.08;;
55784;SDS011;41709;52.536;5.688;2023-09-12T00:44:59;31.00;;;24.73;;
55784;SDS011;41709;52.536;5.688;2023-09-12T00:47:24;28.40;;;22.67;;
55784;SDS011;41709;52.536;5.688;2023-09-12T00:49:52;31.85;;;24.45;;
55784;SDS011;41709;52.536;5.688;2023-09-12T00:52:18;32.35;;;24.33;;
55784;SDS011;41709;52.536;5.688;2023-09-12T00:54:45;35.70;;;25.50;;
55784;SDS011;41709;52.536;5.688;2023-09-12T00:57:11;32.15;;;24.85;;
55784;SDS011;41709;52.536;5.688;2023-09-12T00:59:36;30.25;;;24.40;;
55784;SDS011;41709;52.536;5.688;2023-09-12T01:02:02;33.17;;;24.17;;
55784;SDS011;41709;52.536;5.688;2023-09-12T01:04:28;31.30;;;23.55;;
55784;SDS011;41709;52.536;5.688;2023-09-12T01:06:54;32.45;;;25.10;;
55784;SDS011;41709;52.536;5.688;2023-09-12T01:09:20;31.88;;;24.25;;
55784;SDS011;41709;52.536;5.688;2023-09-12T01:11:46;34.03;;;25.10;;
55784;SDS011;41709;52.536;5.688;2023-09-12T01:14:11;35.58;;;25.40;;
55784;SDS011;41709;52.536;5.688;2023-09-12T01:16:37;30.42;;;23.92;;
55784;SDS011;41709;52.536;5.688;2023-09-12T01:19:03;30.30;;;23.58;;
55784;SDS011;41709;52.536;5.688;2023-09-12T01:29:32;34.78;;;25.88;;
55784;SDS011;41709;52.536;5.688;2023-09-12T01:32:00;35.47;;;26.35;;
55784;SDS011;41709;52.536;5.688;2023-09-12T01:34:26;34.28;;;25.50;;
55784;SDS011;41709;52.536;5.688;2023-09-12T01:36:52;36.50;;;27.25;;
55784;SDS011;41709;52.536;5.688;2023-09-12T01:39:17;33.47;;;25.92;;
55784;SDS011;41709;52.536;5.688;2023-09-12T01:41:43;33.47;;;26.33;;
55784;SDS011;41709;52.536;5.688;2023-09-12T01:44:11;36.85;;;26.88;;
55784;SDS011;41709;52.536;5.688;2023-09-12T01:46:38;33.90;;;26.75;;
55784;SDS011;41709;52.536;5.688;2023-09-12T01:49:04;39.50;;;28.25;;
55784;SDS011;41709;52.536;5.688;2023-09-12T01:51:32;37.55;;;28.02;;
55784;SDS011;41709;52.536;5.688;2023-09-12T01:53:58;35.70;;;26.90;;
55784;SDS011;41709;52.536;5.688;2023-09-12T01:56:25;36.30;;;26.75;;
55784;SDS011;41709;52.536;5.688;2023-09-12T01:58:51;35.35;;;26.77;;
55784;SDS011;41709;52.536;5.688;2023-09-12T02:01:17;33.83;;;26.85;;
55784;SDS011;41709;52.536;5.688;2023-09-12T02:03:42;35.80;;;26.38;;
55784;SDS011;41709;52.536;5.688;2023-09-12T02:06:08;35.38;;;27.23;;
55784;SDS011;41709;52.536;5.688;2023-09-12T02:08:33;33.65;;;26.27;;
55784;SDS011;41709;52.536;5.688;2023-09-12T02:10:59;38.45;;;26.67;;
55784;SDS011;41709;52.536;5.688;2023-09-12T02:13:24;34.95;;;26.35;;
55784;SDS011;41709;52.536;5.688;2023-09-12T02:15:50;35.58;;;25.88;;
55784;SDS011;41709;52.536;5.688;2023-09-12T02:18:24;35.85;;;24.92;;
55784;SDS011;41709;52.536;5.688;2023-09-12T02:20:49;33.28;;;24.60;;
55784;SDS011;41709;52.536;5.688;2023-09-12T02:23:15;28.95;;;24.02;;
55784;SDS011;41709;52.536;5.688;2023-09-12T02:25:40;36.17;;;25.08;;
55784;SDS011;41709;52.536;5.688;2023-09-12T02:28:06;33.00;;;23.98;;
55784;SDS011;41709;52.536;5.688;2023-09-12T02:30:31;28.10;;;22.38;;
55784;SDS011;41709;52.536;5.688;2023-09-12T02:32:57;30.00;;;23.95;;
55784;SDS011;41709;52.536;5.688;2023-09-12T02:35:23;31.25;;;22.90;;
55784;SDS011;41709;52.536;5.688;2023-09-12T02:37:48;33.05;;;24.30;;
55784;SDS011;41709;52.536;5.688;2023-09-12T02:40:14;35.25;;;24.60;;
55784;SDS011;41709;52.536;5.688;2023-09-12T02:42:39;28.55;;;22.70;;
55784;SDS011;41709;52.536;5.688;2023-09-12T02:45:05;31.70;;;23.42;;
55784;SDS011;41709;52.536;5.688;2023-09-12T02:47:31;31.58;;;22.20;;
55784;SDS011;41709;52.536;5.688;2023-09-12T02:49:57;35.03;;;23.42;;
55784;SDS011;41709;52.536;5.688;2023-09-12T02:52:22;31.83;;;22.58;;
55784;SDS011;41709;52.536;5.688;2023-09-12T02:54:48;32.42;;;23.15;;
55784;SDS011;41709;52.536;5.688;2023-09-12T02:57:14;34.58;;;23.85;;
55784;SDS011;41709;52.536;5.688;2023-09-12T02:59:39;32.15;;;23.98;;
55784;SDS011;41709;52.536;5.688;2023-09-12T03:02:05;32.22;;;24.08;;
55784;SDS011;41709;52.536;5.688;2023-09-12T03:04:30;31.75;;;23.83;;
55784;SDS011;41709;52.536;5.688;2023-09-12T03:06:56;34.85;;;23.85;;
55784;SDS011;41709;52.536;5.688;2023-09-12T03:09:21;34.15;;;24.13;;
55784;SDS011;41709;52.536;5.688;2023-09-12T03:11:49;35.92;;;22.95;;
55784;SDS011;41709;52.536;5.688;2023-09-12T03:14:15;37.22;;;25.48;;
55784;SDS011;41709;52.536;5.688;2023-09-12T03:16:40;36.60;;;24.52;;
55784;SDS011;41709;52.536;5.688;2023-09-12T03:19:06;37.35;;;26.58;;
55784;SDS011;41709;52.536;5.688;2023-09-12T03:21:31;35.85;;;25.63;;
55784;SDS011;41709;52.536;5.688;2023-09-12T03:23:57;39.25;;;27.63;;
55784;SDS011;41709;52.536;5.688;2023-09-12T03:26:22;38.05;;;27.05;;
55784;SDS011;41709;52.536;5.688;2023-09-12T03:28:51;42.35;;;28.70;;
55784;SDS011;41709;52.536;5.688;2023-09-12T03:31:17;40.55;;;27.88;;
55784;SDS011;41709;52.536;5.688;2023-09-12T03:33:43;43.25;;;27.55;;
55784;SDS011;41709;52.536;5.688;2023-09-12T03:36:15;38.90;;;27.70;;
55784;SDS011;41709;52.536;5.688;2023-09-12T03:38:42;40.72;;;28.10;;
55784;SDS011;41709;52.536;5.688;2023-09-12T03:41:08;45.70;;;29.20;;
55784;SDS011;41709;52.536;5.688;2023-09-12T03:43:33;41.67;;;27.60;;
55784;SDS011;41709;52.536;5.688;2023-09-12T03:45:59;43.70;;;30.17;;
55784;SDS011;41709;52.536;5.688;2023-09-12T03:48:25;44.83;;;29.17;;
55784;SDS011;41709;52.536;5.688;2023-09-12T03:50:50;42.15;;;27.92;;
55784;SDS011;41709;52.536;5.688;2023-09-12T03:53:16;41.78;;;28.60;;
55784;SDS011;41709;52.536;5.688;2023-09-12T03:55:42;39.03;;;27.15;;
55784;SDS011;41709;52.536;5.688;2023-09-12T03:58:08;54.28;;;29.95;;
55784;SDS011;41709;52.536;5.688;2023-09-12T04:00:34;45.03;;;29.90;;
55784;SDS011;41709;52.536;5.688;2023-09-12T04:02:59;48.40;;;30.80;;
55784;SDS011;41709;52.536;5.688;2023-09-12T04:05:25;48.80;;;31.08;;
55784;SDS011;41709;52.536;5.688;2023-09-12T04:07:51;53.58;;;32.08;;
55784;SDS011;41709;52.536;5.688;2023-09-12T04:10:17;44.33;;;28.50;;
55784;SDS011;41709;52.536;5.688;2023-09-12T04:12:44;49.45;;;31.48;;
55784;SDS011;41709;52.536;5.688;2023-09-12T04:15:10;48.47;;;29.98;;
55784;SDS011;41709;52.536;5.688;2023-09-12T04:17:35;49.90;;;29.40;;
55784;SDS011;41709;52.536;5.688;2023-09-12T04:20:01;47.22;;;31.70;;
55784;SDS011;41709;52.536;5.688;2023-09-12T04:22:26;52.13;;;31.88;;
55784;SDS011;41709;52.536;5.688;2023-09-12T04:24:53;52.22;;;33.13;;
55784;SDS011;41709;52.536;5.688;2023-09-12T04:27:19;51.78;;;32.38;;
55784;SDS011;41709;52.536;5.688;2023-09-12T04:29:44;50.28;;;32.63;;
55784;SDS011;41709;52.536;5.688;2023-09-12T04:32:10;53.65;;;33.70;;
55784;SDS011;41709;52.536;5.688;2023-09-12T04:34:36;50.03;;;31.15;;
55784;SDS011;41709;52.536;5.688;2023-09-12T04:37:02;50.70;;;32.80;;
55784;SDS011;41709;52.536;5.688;2023-09-12T04:39:28;48.00;;;31.30;;
55784;SDS011;41709;52.536;5.688;2023-09-12T04:41:54;48.75;;;31.52;;
55784;SDS011;41709;52.536;5.688;2023-09-12T04:44:20;47.92;;;32.05;;
55784;SDS011;41709;52.536;5.688;2023-09-12T04:46:46;52.67;;;32.15;;
55784;SDS011;41709;52.536;5.688;2023-09-12T04:49:11;47.28;;;31.48;;
55784;SDS011;41709;52.536;5.688;2023-09-12T04:51:37;55.33;;;33.25;;
55784;SDS011;41709;52.536;5.688;2023-09-12T04:54:03;52.90;;;33.78;;
55784;SDS011;41709;52.536;5.688;2023-09-12T04:56:29;46.95;;;31.83;;
55784;SDS011;41709;52.536;5.688;2023-09-12T04:58:54;46.78;;;31.52;;
55784;SDS011;41709;52.536;5.688;2023-09-12T05:01:20;42.53;;;28.65;;
55784;SDS011;41709;52.536;5.688;2023-09-12T05:03:45;48.55;;;31.13;;
55784;SDS011;41709;52.536;5.688;2023-09-12T05:06:11;45.13;;;30.42;;
55784;SDS011;41709;52.536;5.688;2023-09-12T05:08:38;45.95;;;30.10;;
55784;SDS011;41709;52.536;5.688;2023-09-12T05:11:04;45.00;;;29.42;;
55784;SDS011;41709;52.536;5.688;2023-09-12T05:13:29;47.28;;;31.20;;
55784;SDS011;41709;52.536;5.688;2023-09-12T05:15:55;48.72;;;33.20;;
55784;SDS011;41709;52.536;5.688;2023-09-12T05:18:24;44.92;;;29.38;;
55784;SDS011;41709;52.536;5.688;2023-09-12T05:20:49;45.53;;;30.20;;
55784;SDS011;41709;52.536;5.688;2023-09-12T05:23:15;51.47;;;31.60;;
55784;SDS011;41709;52.536;5.688;2023-09-12T05:25:41;51.22;;;31.52;;
55784;SDS011;41709;52.536;5.688;2023-09-12T05:28:07;46.75;;;29.92;;
55784;SDS011;41709;52.536;5.688;2023-09-12T05:30:32;47.38;;;30.65;;
55784;SDS011;41709;52.536;5.688;2023-09-12T05:32:58;43.40;;;30.30;;
55784;SDS011;41709;52.536;5.688;2023-09-12T05:35:23;42.45;;;27.88;;
55784;SDS011;41709;52.536;5.688;2023-09-12T05:37:50;42.90;;;29.52;;
55784;SDS011;41709;52.536;5.688;2023-09-12T05:40:16;40.00;;;27.52;;
55784;SDS011;41709;52.536;5.688;2023-09-12T05:42:42;43.50;;;27.00;;
55784;SDS011;41709;52.536;5.688;2023-09-12T05:45:08;40.78;;;27.67;;
55784;SDS011;41709;52.536;5.688;2023-09-12T05:47:33;39.38;;;28.33;;
55784;SDS011;41709;52.536;5.688;2023-09-12T05:49:59;41.25;;;27.55;;
55784;SDS011;41709;52.536;5.688;2023-09-12T05:52:25;38.55;;;27.20;;
55784;SDS011;41709;52.536;5.688;2023-09-12T05:54:51;37.63;;;26.77;;
55784;SDS011;41709;52.536;5.688;2023-09-12T05:57:17;44.83;;;28.92;;
55784;SDS011;41709;52.536;5.688;2023-09-12T05:59:42;41.22;;;29.98;;
55784;SDS011;41709;52.536;5.688;2023-09-12T06:02:08;44.45;;;29.45;;
55784;SDS011;41709;52.536;5.688;2023-09-12T06:04:35;40.88;;;27.83;;
55784;SDS011;41709;52.536;5.688;2023-09-12T06:07:01;39.05;;;27.77;;
55784;SDS011;41709;52.536;5.688;2023-09-12T06:09:28;43.53;;;31.17;;
55784;SDS011;41709;52.536;5.688;2023-09-12T06:11:53;39.72;;;28.23;;
55784;SDS011;41709;52.536;5.688;2023-09-12T06:14:19;40.58;;;28.75;;
55784;SDS011;41709;52.536;5.688;2023-09-12T06:16:45;40.90;;;28.33;;
55784;SDS011;41709;52.536;5.688;2023-09-12T06:19:10;46.83;;;31.40;;
55784;SDS011;41709;52.536;5.688;2023-09-12T06:21:36;45.05;;;29.38;;
55784;SDS011;41709;52.536;5.688;2023-09-12T06:24:12;43.08;;;29.33;;
55784;SDS011;41709;52.536;5.688;2023-09-12T06:26:39;43.90;;;30.20;;
55784;SDS011;41709;52.536;5.688;2023-09-12T06:29:05;45.03;;;29.35;;
55784;SDS011;41709;52.536;5.688;2023-09-12T06:31:32;43.05;;;31.17;;
55784;SDS011;41709;52.536;5.688;2023-09-12T06:33:58;42.35;;;29.17;;
55784;SDS011;41709;52.536;5.688;2023-09-12T06:36:27;41.45;;;29.27;;
55784;SDS011;41709;52.536;5.688;2023-09-12T06:38:54;41.30;;;28.98;;
55784;SDS011;41709;52.536;5.688;2023-09-12T06:41:20;41.33;;;28.40;;
55784;SDS011;41709;52.536;5.688;2023-09-12T06:43:46;44.35;;;31.10;;
55784;SDS011;41709;52.536;5.688;2023-09-12T06:46:12;38.90;;;27.65;;
55784;SDS011;41709;52.536;5.688;2023-09-12T06:48:38;36.53;;;26.65;;
55784;SDS011;41709;52.536;5.688;2023-09-12T06:51:04;38.97;;;28.23;;
55784;SDS011;41709;52.536;5.688;2023-09-12T06:53:31;36.83;;;27.13;;
55784;SDS011;41709;52.536;5.688;2023-09-12T06:55:57;35.92;;;26.35;;
55784;SDS011;41709;52.536;5.688;2023-09-12T06:58:24;35.58;;;24.88;;
55784;SDS011;41709;52.536;5.688;2023-09-12T07:00:50;33.90;;;23.70;;
55784;SDS011;41709;52.536;5.688;2023-09-12T07:03:15;30.10;;;22.95;;
55784;SDS011;41709;52.536;5.688;2023-09-12T07:05:41;37.20;;;24.17;;
55784;SDS011;41709;52.536;5.688;2023-09-12T07:08:08;34.58;;;24.33;;
55784;SDS011;41709;52.536;5.688;2023-09-12T07:10:33;30.65;;;22.70;;
55784;SDS011;41709;52.536;5.688;2023-09-12T07:13:00;31.58;;;23.75;;
55784;SDS011;41709;52.536;5.688;2023-09-12T07:15:26;31.33;;;22.85;;
55784;SDS011;41709;52.536;5.688;2023-09-12T07:17:52;34.03;;;23.67;;
55784;SDS011;41709;52.536;5.688;2023-09-12T07:20:17;31.42;;;23.88;;
55784;SDS011;41709;52.536;5.688;2023-09-12T07:22:45;30.67;;;22.45;;
55784;SDS011;41709;52.536;5.688;2023-09-12T07:25:11;32.45;;;24.02;;
55784;SDS011;41709;52.536;5.688;2023-09-12T07:27:38;33.40;;;22.40;;
55784;SDS011;41709;52.536;5.688;2023-09-12T07:30:05;35.45;;;24.00;;
55784;SDS011;41709;52.536;5.688;2023-09-12T07:32:32;30.88;;;23.15;;
55784;SDS011;41709;52.536;5.688;2023-09-12T07:34:57;29.48;;;22.20;;
55784;SDS011;41709;52.536;5.688;2023-09-12T07:37:23;35.28;;;23.70;;
55784;SDS011;41709;52.536;5.688;2023-09-12T07:39:48;33.35;;;25.40;;
55784;SDS011;41709;52.536;5.688;2023-09-12T07:42:14;30.20;;;24.08;;
55784;SDS011;41709;52.536;5.688;2023-09-12T07:44:40;31.23;;;22.50;;
55784;SDS011;41709;52.536;5.688;2023-09-12T07:47:06;31.45;;;24.40;;
55784;SDS011;41709;52.536;5.688;2023-09-12T07:49:32;35.30;;;24.27;;
55784;SDS011;41709;52.536;5.688;2023-09-12T07:51:58;31.77;;;24.27;;
55784;SDS011;41709;52.536;5.688;2023-09-12T07:54:23;33.85;;;24.10;;
55784;SDS011;41709;52.536;5.688;2023-09-12T07:56:49;37.58;;;27.73;;
55784;SDS011;41709;52.536;5.688;2023-09-12T07:59:14;33.13;;;24.88;;
55784;SDS011;41709;52.536;5.688;2023-09-12T08:01:40;43.13;;;26.55;;
55784;SDS011;41709;52.536;5.688;2023-09-12T08:04:06;34.42;;;25.90;;
55784;SDS011;41709;52.536;5.688;2023-09-12T08:06:32;33.97;;;24.13;;
55784;SDS011;41709;52.536;5.688;2023-09-12T08:08:58;35.65;;;24.52;;
55784;SDS011;41709;52.536;5.688;2023-09-12T08:11:23;38.10;;;26.35;;
55784;SDS011;41709;52.536;5.688;2023-09-12T08:13:49;36.03;;;25.77;;
55784;SDS011;41709;52.536;5.688;2023-09-12T08:16:15;32.47;;;24.80;;
55784;SDS011;41709;52.536;5.688;2023-09-12T08:18:41;35.85;;;25.27;;
55784;SDS011;41709;52.536;5.688;2023-09-12T08:21:07;34.22;;;25.05;;
55784;SDS011;41709;52.536;5.688;2023-09-12T08:23:32;39.88;;;26.42;;
55784;SDS011;41709;52.536;5.688;2023-09-12T08:25:59;34.78;;;24.67;;
55784;SDS011;41709;52.536;5.688;2023-09-12T08:28:25;37.10;;;26.65;;
55784;SDS011;41709;52.536;5.688;2023-09-12T08:30:50;38.13;;;25.77;;
55784;SDS011;41709;52.536;5.688;2023-09-12T08:33:16;32.97;;;24.02;;
55784;SDS011;41709;52.536;5.688;2023-09-12T08:35:41;40.92;;;26.15;;
55784;SDS011;41709;52.536;5.688;2023-09-12T08:38:08;37.80;;;26.50;;
55784;SDS011;41709;52.536;5.688;2023-09-12T08:40:33;38.33;;;26.85;;
55784;SDS011;41709;52.536;5.688;2023-09-12T08:43:00;36.30;;;23.88;;
55784;SDS011;41709;52.536;5.688;2023-09-12T08:45:28;41.13;;;26.07;;
55784;SDS011;41709;52.536;5.688;2023-09-12T08:47:54;35.92;;;24.83;;
55784;SDS011;41709;52.536;5.688;2023-09-12T08:52:49;36.65;;;22.92;;
55784;SDS011;41709;52.536;5.688;2023-09-12T08:55:16;36.03;;;23.50;;
55784;SDS011;41709;52.536;5.688;2023-09-12T08:57:42;37.70;;;25.33;;
55784;SDS011;41709;52.536;5.688;2023-09-12T09:00:09;38.42;;;24.70;;
55784;SDS011;41709;52.536;5.688;2023-09-12T09:02:39;34.78;;;23.60;;
55784;SDS011;41709;52.536;5.688;2023-09-12T09:05:06;43.13;;;26.95;;
55784;SDS011;41709;52.536;5.688;2023-09-12T09:07:40;35.03;;;23.95;;
55784;SDS011;41709;52.536;5.688;2023-09-12T09:10:07;34.97;;;23.63;;
55784;SDS011;41709;52.536;5.688;2023-09-12T09:12:44;34.10;;;23.15;;
55784;SDS011;41709;52.536;5.688;2023-09-12T09:17:46;32.95;;;22.67;;
55784;SDS011;41709;52.536;5.688;2023-09-12T09:20:21;36.25;;;23.30;;
55784;SDS011;41709;52.536;5.688;2023-09-12T09:25:23;35.63;;;20.58;;
55784;SDS011;41709;52.536;5.688;2023-09-12T09:27:49;29.60;;;19.15;;
55784;SDS011;41709;52.536;5.688;2023-09-12T09:30:14;30.63;;;21.90;;
55784;SDS011;41709;52.536;5.688;2023-09-12T09:32:40;32.40;;;21.10;;
55784;SDS011;41709;52.536;5.688;2023-09-12T09:35:06;30.67;;;18.73;;
55784;SDS011;41709;52.536;5.688;2023-09-12T09:37:32;27.55;;;17.75;;
55784;SDS011;41709;52.536;5.688;2023-09-12T09:39:58;27.23;;;18.02;;
55784;SDS011;41709;52.536;5.688;2023-09-12T09:42:24;25.67;;;17.80;;
55784;SDS011;41709;52.536;5.688;2023-09-12T09:44:53;26.70;;;18.25;;
55784;SDS011;41709;52.536;5.688;2023-09-12T09:47:19;30.08;;;18.35;;
55784;SDS011;41709;52.536;5.688;2023-09-12T09:49:45;25.70;;;16.02;;
55784;SDS011;41709;52.536;5.688;2023-09-12T09:52:11;25.42;;;16.05;;
55784;SDS011;41709;52.536;5.688;2023-09-12T09:54:38;26.75;;;17.90;;
55784;SDS011;41709;52.536;5.688;2023-09-12T09:57:09;26.58;;;17.33;;
55784;SDS011;41709;52.536;5.688;2023-09-12T09:59:34;24.48;;;16.55;;
55784;SDS011;41709;52.536;5.688;2023-09-12T10:02:00;26.10;;;17.63;;
55784;SDS011;41709;52.536;5.688;2023-09-12T10:04:28;23.98;;;15.57;;
55784;SDS011;41709;52.536;5.688;2023-09-12T10:06:55;23.42;;;14.38;;
55784;SDS011;41709;52.536;5.688;2023-09-12T10:09:22;19.00;;;13.05;;
55784;SDS011;41709;52.536;5.688;2023-09-12T10:11:51;18.50;;;13.23;;
55784;SDS011;41709;52.536;5.688;2023-09-12T10:14:18;25.05;;;14.68;;
55784;SDS011;41709;52.536;5.688;2023-09-12T10:16:46;20.48;;;12.98;;
55784;SDS011;41709;52.536;5.688;2023-09-12T10:19:23;19.55;;;13.50;;
55784;SDS011;41709;52.536;5.688;2023-09-12T10:21:58;23.65;;;15.15;;
55784;SDS011;41709;52.536;5.688;2023-09-12T10:24:44;19.88;;;14.02;;
55784;SDS011;41709;52.536;5.688;2023-09-12T10:27:11;26.98;;;17.02;;
55784;SDS011;41709;52.536;5.688;2023-09-12T10:29:38;24.63;;;17.25;;
55784;SDS011;41709;52.536;5.688;2023-09-12T10:32:04;22.80;;;15.77;;
55784;SDS011;41709;52.536;5.688;2023-09-12T10:34:30;26.60;;;15.23;;
55784;SDS011;41709;52.536;5.688;2023-09-12T10:36:57;22.40;;;16.13;;
55784;SDS011;41709;52.536;5.688;2023-09-12T10:39:24;22.88;;;15.02;;
55784;SDS011;41709;52.536;5.688;2023-09-12T10:41:52;20.60;;;13.90;;
55784;SDS011;41709;52.536;5.688;2023-09-12T10:44:19;25.00;;;14.82;;
55784;SDS011;41709;52.536;5.688;2023-09-12T10:46:46;19.20;;;13.13;;
55784;SDS011;41709;52.536;5.688;2023-09-12T10:49:14;19.77;;;13.85;;
55784;SDS011;41709;52.536;5.688;2023-09-12T10:51:44;20.45;;;14.48;;
55784;SDS011;41709;52.536;5.688;2023-09-12T10:54:14;19.73;;;13.35;;
55784;SDS011;41709;52.536;5.688;2023-09-12T10:56:47;18.83;;;11.82;;
55784;SDS011;41709;52.536;5.688;2023-09-12T11:00:07;22.02;;;14.10;;
55784;SDS011;41709;52.536;5.688;2023-09-12T11:02:27;16.35;;;11.63;;
55784;SDS011;41709;52.536;5.688;2023-09-12T11:04:58;16.65;;;10.68;;
55784;SDS011;41709;52.536;5.688;2023-09-12T11:12:41;16.88;;;11.98;;
55784;SDS011;41709;52.536;5.688;2023-09-12T11:15:07;18.55;;;12.35;;
55784;SDS011;41709;52.536;5.688;2023-09-12T11:17:38;22.10;;;12.53;;
55784;SDS011;41709;52.536;5.688;2023-09-12T11:20:04;17.98;;;11.18;;
55784;SDS011;41709;52.536;5.688;2023-09-12T11:22:36;17.20;;;10.60;;
55784;SDS011;41709;52.536;5.688;2023-09-12T11:25:04;15.25;;;10.45;;
55784;SDS011;41709;52.536;5.688;2023-09-12T11:27:45;13.98;;;10.52;;
55784;SDS011;41709;52.536;5.688;2023-09-12T11:30:28;15.18;;;8.85;;
55784;SDS011;41709;52.536;5.688;2023-09-12T11:32:56;11.27;;;8.30;;
55784;SDS011;41709;52.536;5.688;2023-09-12T11:35:23;17.75;;;9.15;;
55784;SDS011;41709;52.536;5.688;2023-09-12T11:37:51;12.60;;;9.35;;
55784;SDS011;41709;52.536;5.688;2023-09-12T11:40:41;19.52;;;11.15;;
55784;SDS011;41709;52.536;5.688;2023-09-12T11:43:23;14.73;;;9.68;;
55784;SDS011;41709;52.536;5.688;2023-09-12T11:45:50;14.85;;;10.63;;
55784;SDS011;41709;52.536;5.688;2023-09-12T11:48:19;15.00;;;9.30;;
55784;SDS011;41709;52.536;5.688;2023-09-12T11:50:54;18.20;;;11.43;;
55784;SDS011;41709;52.536;5.688;2023-09-12T11:53:22;11.35;;;7.35;;
55784;SDS011;41709;52.536;5.688;2023-09-12T11:55:53;15.35;;;9.68;;
55784;SDS011;41709;52.536;5.688;2023-09-12T11:58:20;14.50;;;9.13;;
55784;SDS011;41709;52.536;5.688;2023-09-12T12:00:50;12.10;;;8.90;;
55784;SDS011;41709;52.536;5.688;2023-09-12T12:03:17;12.68;;;9.45;;
55784;SDS011;41709;52.536;5.688;2023-09-12T12:05:45;13.88;;;8.45;;
55784;SDS011;41709;52.536;5.688;2023-09-12T12:08:11;11.95;;;8.30;;
55784;SDS011;41709;52.536;5.688;2023-09-12T12:10:37;14.57;;;9.57;;
55784;SDS011;41709;52.536;5.688;2023-09-12T12:15:35;10.55;;;7.00;;
55784;SDS011;41709;52.536;5.688;2023-09-12T12:18:01;10.52;;;7.30;;
55784;SDS011;41709;52.536;5.688;2023-09-12T12:20:26;10.68;;;6.38;;
55784;SDS011;41709;52.536;5.688;2023-09-12T12:22:54;11.25;;;7.25;;
55784;SDS011;41709;52.536;5.688;2023-09-12T12:25:19;7.45;;;5.40;;
55784;SDS011;41709;52.536;5.688;2023-09-12T12:27:45;5.57;;;3.60;;
55784;SDS011;41709;52.536;5.688;2023-09-12T12:30:12;8.38;;;5.40;;
55784;SDS011;41709;52.536;5.688;2023-09-12T12:32:41;9.18;;;6.18;;
55784;SDS011;41709;52.536;5.688;2023-09-12T12:35:08;14.02;;;10.45;;
55784;SDS011;41709;52.536;5.688;2023-09-12T12:37:35;16.02;;;11.05;;
55784;SDS011;41709;52.536;5.688;2023-09-12T12:40:01;14.27;;;9.90;;
55784;SDS011;41709;52.536;5.688;2023-09-12T12:42:35;17.30;;;9.38;;
55784;SDS011;41709;52.536;5.688;2023-09-12T12:45:10;14.50;;;10.23;;
55784;SDS011;41709;52.536;5.688;2023-09-12T12:47:40;18.20;;;11.30;;
55784;SDS011;41709;52.536;5.688;2023-09-12T12:50:13;15.57;;;11.60;;
55784;SDS011;41709;52.536;5.688;2023-09-12T12:52:45;15.18;;;10.32;;
55784;SDS011;41709;52.536;5.688;2023-09-12T12:55:12;13.13;;;9.63;;
55784;SDS011;41709;52.536;5.688;2023-09-12T12:57:41;12.40;;;10.15;;
55784;SDS011;41709;52.536;5.688;2023-09-12T13:00:09;12.87;;;9.30;;
55784;SDS011;41709;52.536;5.688;2023-09-12T13:02:39;7.68;;;6.30;;
55784;SDS011;41709;52.536;5.688;2023-09-12T13:05:07;11.13;;;5.63;;
55784;SDS011;41709;52.536;5.688;2023-09-12T13:07:55;12.50;;;8.40;;
55784;SDS011;41709;52.536;5.688;2023-09-12T13:10:21;12.45;;;7.85;;
55784;SDS011;41709;52.536;5.688;2023-09-12T13:12:47;11.27;;;7.05;;
55784;SDS011;41709;52.536;5.688;2023-09-12T13:15:13;11.57;;;8.50;;
55784;SDS011;41709;52.536;5.688;2023-09-12T13:17:40;14.75;;;12.23;;
55784;SDS011;41709;52.536;5.688;2023-09-12T13:20:06;14.18;;;11.38;;
55784;SDS011;41709;52.536;5.688;2023-09-12T13:22:36;17.40;;;11.40;;
55784;SDS011;41709;52.536;5.688;2023-09-12T13:25:02;17.98;;;10.57;;
55784;SDS011;41709;52.536;5.688;2023-09-12T13:27:28;14.88;;;10.82;;
55784;SDS011;41709;52.536;5.688;2023-09-12T13:29:54;11.02;;;9.40;;
55784;SDS011;41709;52.536;5.688;2023-09-12T13:32:19;13.50;;;9.02;;
55784;SDS011;41709;52.536;5.688;2023-09-12T13:34:45;13.98;;;10.95;;
55784;SDS011;41709;52.536;5.688;2023-09-12T13:37:11;17.42;;;10.40;;
55784;SDS011;41709;52.536;5.688;2023-09-12T13:39:36;15.82;;;11.32;;
55784;SDS011;41709;52.536;5.688;2023-09-12T13:42:02;18.38;;;13.18;;
55784;SDS011;41709;52.536;5.688;2023-09-12T13:44:29;14.80;;;10.30;;
55784;SDS011;41709;52.536;5.688;2023-09-12T13:46:55;18.38;;;10.02;;
55784;SDS011;41709;52.536;5.688;2023-09-12T13:49:20;10.80;;;9.23;;
55784;SDS011;41709;52.536;5.688;2023-09-12T13:51:46;17.23;;;10.65;;
55784;SDS011;41709;52.536;5.688;2023-09-12T13:54:12;13.02;;;9.35;;
55784;SDS011;41709;52.536;5.688;2023-09-12T13:56:43;11.75;;;8.85;;
55784;SDS011;41709;52.536;5.688;2023-09-12T13:59:09;12.40;;;8.70;;
55784;SDS011;41709;52.536;5.688;2023-09-12T14:01:35;11.02;;;9.20;;
55784;SDS011;41709;52.536;5.688;2023-09-12T14:04:01;16.60;;;11.18;;
55784;SDS011;41709;52.536;5.688;2023-09-12T14:06:27;17.20;;;14.32;;
55784;SDS011;41709;52.536;5.688;2023-09-12T14:08:53;15.90;;;10.40;;
55784;SDS011;41709;52.536;5.688;2023-09-12T14:11:18;15.75;;;12.13;;
55784;SDS011;41709;52.536;5.688;2023-09-12T14:13:44;16.77;;;13.00;;
55784;SDS011;41709;52.536;5.688;2023-09-12T14:16:10;19.20;;;13.50;;
55784;SDS011;41709;52.536;5.688;2023-09-12T14:18:35;19.98;;;14.32;;
55784;SDS011;41709;52.536;5.688;2023-09-12T14:21:02;21.60;;;11.63;;
55784;SDS011;41709;52.536;5.688;2023-09-12T14:23:28;8.82;;;4.60;;
55784;SDS011;41709;52.536;5.688;2023-09-12T14:25:53;7.55;;;4.70;;
55784;SDS011;41709;52.536;5.688;2023-09-12T14:28:19;7.32;;;3.58;;
55784;SDS011;41709;52.536;5.688;2023-09-12T14:30:44;6.18;;;4.55;;
55784;SDS011;41709;52.536;5.688;2023-09-12T14:33:11;5.57;;;4.20;;
55784;SDS011;41709;52.536;5.688;2023-09-12T14:35:37;6.05;;;3.83;;
55784;SDS011;41709;52.536;5.688;2023-09-12T14:38:03;4.40;;;3.60;;
55784;SDS011;41709;52.536;5.688;2023-09-12T14:40:29;8.43;;;5.55;;
55784;SDS011;41709;52.536;5.688;2023-09-12T14:42:55;6.68;;;4.60;;
55784;SDS011;41709;52.536;5.688;2023-09-12T14:45:20;7.32;;;6.10;;